Kezdőlap
METAR-TAF:

METAR-TAF

Repülőterek :

Gibraltári repülőtér

Gibraltár, Gibraltár

földrajzi szélesség: 36-09N, földrajzi hosszúság: 005-21W, magasság: 5 m

Jelenlegi meteorológiai megfigyelések

A jelentés 1 órával és 15 perccel ezelõtt készült, 21:50 UTC
Nyugati szél 13 kt
Hőmérséklet 21°C
Páratartalom 78%
Légköri nyomás 1021 hPa
Látótávolság 10 km, vagy több

METAR: LXGB 152150Z AUTO 27013KT 9999 // NCD 21/17 Q1021

Idő: 01:05 (23:05 UTC)

Előrejelzés

A jelentés 6 órával és 41 perccel ezelõtt készült, 16:24 UTC
Az előrejelzés 15-én 18 óra UTC és 15-én 22 óra UTC között érvényes
Nyugati szél 14 kt
Látótávolság 10 km, vagy több
Kevés felhő 4000 lábon
15-én 18 óra UTC és 15-én 22 óra UTC között ideiglenes
Nyugati szél 17 kt széllökések: 27 kt

TAF: LXGB 151624Z 1518/1522 26014KT 9999 FEW040 TEMPO 1518/1522 27017G27KT

Meteorológiai megfigyelések és előrejelzések több, mint 4000 repülőtéren (METAR és TAF jelentéseket).

A térképen piros és sárga pontok jelzik az elérhető meteorológiai állomásokat.

Mozgassa az egeret a pont fölött, hogy megjelenjen az állomás neve.

Azután kattintson az időjárási megfigyelések és előrejelzések megtekintéséhez.

A térkép megváltoztatása: kattintson a fekete keresztel jelölt zöld gombra ráközelítéshez, a vonallal jelölt zöld gombra távolításhoz, vagy a zöld nyilakra a szomszédos térképek eléréséhez.


METAR-TAF: